Luzerne, Iowa
Current Conditions -  °F | °C
As of 1:55 PM on Wednesday 17 Dec 2014 (Local Time) from KVTI Reporting Station
Clear Clear  
Wind Chill: 18°   Ceiling: Unl
Heat Index: 26°   Visibility: 10mi
Dew Point: 15°   Wind: 8mph
Humidity: 62%   Direction: 360°N
Pressure: 30.26"   Gusts: NA
Location:  41.9°N, 92.18°W
Report Text: KVTI 171955Z AUTO 36007KT 10SM CLR M03/M09 A3026 RMK AO2 T10321095
Loading
Personal Weather Stations






























Interactive Weather Map New forecast layout! Learn more

10-Day Weather Forecast

Advertisements
Track Severe Weather on mobile